Estación Meteorológica Peña el Pijo (Robertgarden) [ 11/16/19 02:22:48 CET ]

Fecha Hora Presion(HPa) Temp (°C) Humedad % Rocio (°C) Viento ( m/s) Direccion Lluvia 1Hora(mm) Lluvia 24H(mm) LLuvia Total(mm)
2019-Mar-18 01:01:47 1009.100 4.8 60 -2.3         184.40
2019-Mar-18 02:01:40 1009.100 4.5 60 -2.6         184.40
2019-Mar-18 03:08:29 1008.900 4.1 63 -2.4         184.40
2019-Mar-18 04:01:39 1008.400 3.9 64 -2.3         184.40
2019-Mar-18 05:01:41 1008.500 3.3 66 -2.5         184.40
2019-Mar-18 06:01:40 1009.100 2.9 69 -2.2         184.40
2019-Mar-18 07:02:08 1009.700 3.0 72 -1.5         184.40
2019-Mar-18 08:01:53 1010.200 2.4 74 -1.8         184.40
2019-Mar-18 09:01:45 1010.900 4.8 73 0.3         184.40
2019-Mar-18 10:01:44 1011.000 8.1 67 2.3         184.40
2019-Mar-18 11:01:54 1011.300 11.3 61 4.0         184.40
2019-Mar-18 12:01:42 1011.300 11.9 60 4.4 0.1 ENE     184.40
2019-Mar-18 13:01:33 1011.100 13.1 56 4.5         184.40
2019-Mar-18 14:01:41 1010.600 13.6 54 4.4         184.40
2019-Mar-18 15:02:02 1009.700 15.1 50 4.8         184.40
2019-Mar-18 16:01:42 1009.400 13.9 49 3.4         184.40
2019-Mar-18 17:02:09 1009.500 13.3 52 3.6         184.40
2019-Mar-18 18:01:48 1009.500 13.2 54 4.0         184.40
2019-Mar-18 19:01:46 1010.500 11.1 62 4.0         184.40
2019-Mar-18 20:01:44 1010.800 9.1 70 3.9         184.40
2019-Mar-18 21:01:42 1011.400 8.1 75 3.9         184.40
2019-Mar-18 22:01:47 1012.000 7.0 76 3.0         184.40
2019-Mar-18 23:01:38 1012.300 5.1 78 1.5         184.40

Temperatura Máxima:15°    Temperatura Mínima:
Presión Máxima:1012.300 Hpa    Presión Mínima:1008.400 Hpa


Volver